Погода Ватагинона неделю

Тверская область, Россия

19 - 25 мая
  • 19мая
    Сегодня
    +8°
    +22°
    Ясно и безоблачно
    ВремяПогодаТемператураВлажностьДавлениеВетер, м/сВероятность осадков
    00:00Ясно и безоблачно+7°C70 %755 мм2.5 м/с2 %
    03:00Ясно и безоблачно+5°C71 %755 мм2.2 м/с2 %
    06:00Ясно и безоблачно+8°C73 %755 мм2.3 м/с2 %
    09:00Ясно и безоблачно+16°C57 %755 мм2.1 м/с2 %
    12:00Ясно и безоблачно+20°C39 %754 мм2.7 м/с2 %
    15:00Ясно и безоблачно+21°C38 %753 мм3.0 м/с2 %
    18:00Ясно и безоблачно+21°C42 %752 мм2.8 м/с2 %
    21:00Ясно и безоблачно+14°C59 %752 мм3.3 м/с2 %
  • 20мая
    Понедельник
    +8°
    +24°
    Практически безоблачно
    ВремяПогодаТемператураВлажностьДавлениеВетер, м/сВероятность осадков
    00:00Ясно и безоблачно+10°C62 %751 мм3.8 м/с2 %
    03:00Ясно и безоблачно+8°C74 %751 мм3.2 м/с2 %
    06:00Ясно и безоблачно+11°C77 %751 мм2.8 м/с2 %
    09:00Ясно и безоблачно+19°C60 %751 мм2.3 м/с2 %
    12:00Практически безоблачно+24°C40 %751 мм3.9 м/с2 %
    15:00Практически безоблачно+22°C36 %751 мм4.5 м/с10 %
    18:00Облачно с прояснениями+20°C57 %751 мм4.2 м/с24 %
    21:00Небольшая облачность+15°C81 %751 мм1.7 м/с14 %
  • 21мая
    Вторник
    +6°
    +22°
    Практически безоблачно
    ВремяПогодаТемператураВлажностьДавлениеВетер, м/сВероятность осадков
    00:00Ясно и безоблачно+11°C93 %752 мм2.2 м/с2 %
    03:00Ясно и безоблачно+9°C97 %752 мм1.7 м/с3 %
    06:00Практически безоблачно+11°C93 %753 мм1.9 м/с2 %
    09:00Ясно и безоблачно+17°C62 %754 мм0.9 м/с4 %
    12:00Практически безоблачно+20°C51 %754 мм1.5 м/с4 %
    15:00Практически безоблачно+21°C43 %753 мм2.5 м/с7 %
    18:00Ясно и безоблачно+21°C37 %753 мм2.4 м/с3 %
    21:00Ясно и безоблачно+14°C53 %754 мм2.6 м/с2 %
  • 22мая
    Среда
    +4°
    +18°
    Ясно и безоблачно
    ВремяПогодаТемператураВлажностьДавлениеВетер, м/сВероятность осадков
    00:00Ясно и безоблачно+8°C67 %754 мм2.0 м/с2 %
    03:00Ясно и безоблачно+7°C53 %756 мм3.6 м/с2 %
    06:00Ясно и безоблачно+8°C62 %756 мм3.2 м/с2 %
    09:00Ясно и безоблачно+15°C54 %757 мм4.5 м/с2 %
    12:00Ясно и безоблачно+17°C40 %758 мм4.8 м/с2 %
    15:00Ясно и безоблачно+18°C37 %758 мм4.6 м/с2 %
    18:00Ясно и безоблачно+15°C35 %758 мм5.0 м/с2 %
    21:00Ясно и безоблачно+10°C48 %759 мм2.8 м/с2 %
  • 23мая
    Четверг
    +2°
    +17°
    Ясно и безоблачно
    ВремяПогодаТемператураВлажностьДавлениеВетер, м/сВероятность осадков
    00:00Ясно и безоблачно+7°C52 %760 мм2.7 м/с2 %
    03:00Ясно и безоблачно+5°C55 %761 мм2.3 м/с2 %
    06:00Ясно и безоблачно+6°C62 %762 мм2.0 м/с2 %
    09:00Ясно и безоблачно+13°C35 %763 мм2.5 м/с2 %
    12:00Ясно и безоблачно+16°C31 %763 мм2.3 м/с2 %
    15:00Ясно и безоблачно+16°C33 %763 мм1.5 м/с2 %
    18:00Ясно и безоблачно+17°C34 %762 мм1.5 м/с2 %
    21:00Ясно и безоблачно+10°C57 %762 мм2.0 м/с2 %
Мы используем cookies
Соглашаюсь